sensor_id;sensor_type;location;lat;lon;timestamp;pressure;altitude;pressure_sealevel;temperature;humidity
51287;BME280;37364;46.974;18.916;2022-12-07T00:00:28;150412.16;;;0.23;100.00
51287;BME280;37364;46.974;18.916;2022-12-07T00:02:59;150400.63;;;0.18;100.00
51287;BME280;37364;46.974;18.916;2022-12-07T00:05:29;150372.34;;;0.07;100.00
51287;BME280;37364;46.974;18.916;2022-12-07T00:08:00;150368.50;;;0.06;100.00
51287;BME280;37364;46.974;18.916;2022-12-07T00:10:33;150358.22;;;0.02;100.00
51287;BME280;37364;46.974;18.916;2022-12-07T00:13:03;150351.81;;;-0.01;100.00
51287;BME280;37364;46.974;18.916;2022-12-07T00:15:33;150346.69;;;-0.03;100.00
51287;BME280;37364;46.974;18.916;2022-12-07T00:18:05;150342.81;;;-0.05;100.00
51287;BME280;37364;46.974;18.916;2022-12-07T00:20:36;150330.00;;;-0.10;100.00
51287;BME280;37364;46.974;18.916;2022-12-07T00:23:06;150335.13;;;-0.08;100.00
51287;BME280;37364;46.974;18.916;2022-12-07T00:25:39;150321.00;;;-0.13;100.00
51287;BME280;37364;46.974;18.916;2022-12-07T00:28:09;150304.28;;;-0.20;100.00
51287;BME280;37364;46.974;18.916;2022-12-07T00:30:39;150279.88;;;-0.30;100.00
51287;BME280;37364;46.974;18.916;2022-12-07T00:33:10;150276.06;;;-0.31;100.00
51287;BME280;37364;46.974;18.916;2022-12-07T00:35:40;150272.22;;;-0.33;100.00
51287;BME280;37364;46.974;18.916;2022-12-07T00:38:10;150259.34;;;-0.38;100.00
51287;BME280;37364;46.974;18.916;2022-12-07T00:40:43;150249.09;;;-0.42;100.00
51287;BME280;37364;46.974;18.916;2022-12-07T00:43:14;150255.47;;;-0.40;100.00
51287;BME280;37364;46.974;18.916;2022-12-07T00:45:46;150252.94;;;-0.41;100.00
51287;BME280;37364;46.974;18.916;2022-12-07T00:48:17;150263.22;;;-0.36;100.00
51287;BME280;37364;46.974;18.916;2022-12-07T00:50:48;150276.06;;;-0.31;100.00
51287;BME280;37364;46.974;18.916;2022-12-07T00:53:18;150287.59;;;-0.27;100.00
51287;BME280;37364;46.974;18.916;2022-12-07T00:55:51;150310.72;;;-0.17;100.00
51287;BME280;37364;46.974;18.916;2022-12-07T00:58:23;150322.28;;;-0.13;100.00
51287;BME280;37364;46.974;18.916;2022-12-07T01:00:53;150331.28;;;-0.09;100.00
51287;BME280;37364;46.974;18.916;2022-12-07T01:03:24;150349.22;;;-0.02;100.00
51287;BME280;37364;46.974;18.916;2022-12-07T01:05:55;150347.94;;;-0.03;100.00
51287;BME280;37364;46.974;18.916;2022-12-07T01:08:27;150349.22;;;-0.02;100.00
51287;BME280;37364;46.974;18.916;2022-12-07T01:11:02;150349.22;;;-0.02;100.00
51287;BME280;37364;46.974;18.916;2022-12-07T01:13:34;150324.81;;;-0.12;100.00
51287;BME280;37364;46.974;18.916;2022-12-07T01:16:05;150328.69;;;-0.10;100.00
51287;BME280;37364;46.974;18.916;2022-12-07T01:18:36;150322.28;;;-0.13;100.00
51287;BME280;37364;46.974;18.916;2022-12-07T01:21:08;150319.69;;;-0.14;100.00
51287;BME280;37364;46.974;18.916;2022-12-07T01:23:40;150317.13;;;-0.15;100.00
51287;BME280;37364;46.974;18.916;2022-12-07T01:26:15;150315.88;;;-0.15;100.00
51287;BME280;37364;46.974;18.916;2022-12-07T01:28:46;150296.59;;;-0.23;100.00
51287;BME280;37364;46.974;18.916;2022-12-07T01:31:18;150290.16;;;-0.26;100.00
51287;BME280;37364;46.974;18.916;2022-12-07T01:33:51;150278.59;;;-0.30;100.00
51287;BME280;37364;46.974;18.916;2022-12-07T01:36:24;150265.75;;;-0.35;100.00
51287;BME280;37364;46.974;18.916;2022-12-07T01:38:56;150261.94;;;-0.37;100.00
51287;BME280;37364;46.974;18.916;2022-12-07T01:41:32;150263.22;;;-0.36;100.00
51287;BME280;37364;46.974;18.916;2022-12-07T01:44:21;150256.81;;;-0.39;100.00
51287;BME280;37364;46.974;18.916;2022-12-07T01:46:54;150258.06;;;-0.38;100.00
51287;BME280;37364;46.974;18.916;2022-12-07T01:49:30;150261.94;;;-0.37;100.00
51287;BME280;37364;46.974;18.916;2022-12-07T01:52:08;150270.88;;;-0.33;100.00
51287;BME280;37364;46.974;18.916;2022-12-07T01:54:40;150267.06;;;-0.35;100.00
51287;BME280;37364;46.974;18.916;2022-12-07T01:57:14;150267.06;;;-0.35;100.00
51287;BME280;37364;46.974;18.916;2022-12-07T01:59:45;150269.63;;;-0.34;100.00
51287;BME280;37364;46.974;18.916;2022-12-07T02:02:19;150290.16;;;-0.26;100.00
51287;BME280;37364;46.974;18.916;2022-12-07T02:04:51;150286.34;;;-0.27;100.00
51287;BME280;37364;46.974;18.916;2022-12-07T02:07:23;150295.28;;;-0.24;100.00
51287;BME280;37364;46.974;18.916;2022-12-07T02:09:53;150299.16;;;-0.22;100.00
51287;BME280;37364;46.974;18.916;2022-12-07T02:12:27;150310.72;;;-0.17;100.00
51287;BME280;37364;46.974;18.916;2022-12-07T02:14:57;150309.41;;;-0.18;100.00
51287;BME280;37364;46.974;18.916;2022-12-07T02:17:33;150324.81;;;-0.12;100.00
51287;BME280;37364;46.974;18.916;2022-12-07T02:20:23;150336.41;;;-0.07;100.00
51287;BME280;37364;46.974;18.916;2022-12-07T02:23:18;150335.13;;;-0.08;100.00
51287;BME280;37364;46.974;18.916;2022-12-07T02:26:07;150351.81;;;-0.01;100.00
51287;BME280;37364;46.974;18.916;2022-12-07T02:28:58;150367.22;;;0.05;100.00
51287;BME280;37364;46.974;18.916;2022-12-07T02:31:33;150376.22;;;0.09;100.00
51287;BME280;37364;46.974;18.916;2022-12-07T02:34:09;150376.22;;;0.09;100.00
51287;BME280;37364;46.974;18.916;2022-12-07T02:36:45;150373.63;;;0.08;100.00
51287;BME280;37364;46.974;18.916;2022-12-07T02:39:19;150373.63;;;0.08;100.00
51287;BME280;37364;46.974;18.916;2022-12-07T02:41:55;150385.22;;;0.12;100.00
51287;BME280;37364;46.974;18.916;2022-12-07T02:44:31;150383.94;;;0.12;100.00
51287;BME280;37364;46.974;18.916;2022-12-07T02:47:05;150373.63;;;0.08;100.00
51287;BME280;37364;46.974;18.916;2022-12-07T02:49:38;150383.94;;;0.12;100.00
51287;BME280;37364;46.974;18.916;2022-12-07T02:52:10;150381.34;;;0.11;100.00
51287;BME280;37364;46.974;18.916;2022-12-07T02:54:40;150390.34;;;0.14;100.00
51287;BME280;37364;46.974;18.916;2022-12-07T02:57:26;150396.75;;;0.17;100.00
51287;BME280;37364;46.974;18.916;2022-12-07T03:00:06;150414.75;;;0.24;100.00
51287;BME280;37364;46.974;18.916;2022-12-07T03:02:48;150430.16;;;0.30;100.00
51287;BME280;37364;46.974;18.916;2022-12-07T03:05:44;150449.44;;;0.38;100.00
51287;BME280;37364;46.974;18.916;2022-12-07T03:08:24;150476.41;;;0.49;100.00
51287;BME280;37364;46.974;18.916;2022-12-07T03:10:59;150484.13;;;0.52;100.00
51287;BME280;37364;46.974;18.916;2022-12-07T03:13:34;150493.13;;;0.55;100.00
51287;BME280;37364;46.974;18.916;2022-12-07T03:16:15;150497.00;;;0.57;100.00
51287;BME280;37364;46.974;18.916;2022-12-07T03:18:50;150504.69;;;0.60;100.00
51287;BME280;37364;46.974;18.916;2022-12-07T03:21:25;150518.81;;;0.66;100.00
51287;BME280;37364;46.974;18.916;2022-12-07T03:23:58;150525.22;;;0.68;100.00
51287;BME280;37364;46.974;18.916;2022-12-07T03:26:32;150527.81;;;0.69;100.00
51287;BME280;37364;46.974;18.916;2022-12-07T03:29:07;150547.09;;;0.77;100.00
51287;BME280;37364;46.974;18.916;2022-12-07T03:31:46;150544.50;;;0.76;100.00
51287;BME280;37364;46.974;18.916;2022-12-07T03:34:23;150545.78;;;0.76;100.00
51287;BME280;37364;46.974;18.916;2022-12-07T03:37:00;150553.50;;;0.79;100.00
51287;BME280;37364;46.974;18.916;2022-12-07T03:39:38;150553.50;;;0.79;100.00
51287;BME280;37364;46.974;18.916;2022-12-07T03:42:10;150554.78;;;0.80;100.00
51287;BME280;37364;46.974;18.916;2022-12-07T03:44:41;150576.66;;;0.89;100.00
51287;BME280;37364;46.974;18.916;2022-12-07T03:47:20;150586.94;;;0.93;100.00
51287;BME280;37364;46.974;18.916;2022-12-07T03:50:02;150595.94;;;0.96;100.00
51287;BME280;37364;46.974;18.916;2022-12-07T03:52:39;150595.94;;;0.96;100.00
51287;BME280;37364;46.974;18.916;2022-12-07T03:55:17;150583.06;;;0.91;100.00
51287;BME280;37364;46.974;18.916;2022-12-07T03:57:51;150572.78;;;0.87;100.00
51287;BME280;37364;46.974;18.916;2022-12-07T04:00:25;150574.06;;;0.88;100.00
51287;BME280;37364;46.974;18.916;2022-12-07T04:03:00;150571.53;;;0.87;100.00
51287;BME280;37364;46.974;18.916;2022-12-07T04:05:30;150556.09;;;0.81;100.00
51287;BME280;37364;46.974;18.916;2022-12-07T04:08:00;150549.66;;;0.78;100.00
51287;BME280;37364;46.974;18.916;2022-12-07T04:10:31;150530.38;;;0.70;100.00
51287;BME280;37364;46.974;18.916;2022-12-07T04:13:01;150522.69;;;0.67;100.00
51287;BME280;37364;46.974;18.916;2022-12-07T04:15:33;150505.94;;;0.61;100.00
51287;BME280;37364;46.974;18.916;2022-12-07T04:18:07;150491.84;;;0.55;100.00
51287;BME280;37364;46.974;18.916;2022-12-07T04:20:37;150482.84;;;0.51;100.00
51287;BME280;37364;46.974;18.916;2022-12-07T04:23:08;150469.97;;;0.46;100.00
51287;BME280;37364;46.974;18.916;2022-12-07T04:25:38;150451.97;;;0.39;100.00
51287;BME280;37364;46.974;18.916;2022-12-07T04:28:09;150416.03;;;0.25;100.00
51287;BME280;37364;46.974;18.916;2022-12-07T04:30:39;150425.03;;;0.28;100.00
51287;BME280;37364;46.974;18.916;2022-12-07T04:33:12;150410.91;;;0.23;100.00
51287;BME280;37364;46.974;18.916;2022-12-07T04:35:43;150398.03;;;0.17;100.00
51287;BME280;37364;46.974;18.916;2022-12-07T04:38:14;150391.63;;;0.15;100.00
51287;BME280;37364;46.974;18.916;2022-12-07T04:40:44;150392.88;;;0.15;100.00
51287;BME280;37364;46.974;18.916;2022-12-07T04:43:14;150386.50;;;0.13;100.00
51287;BME280;37364;46.974;18.916;2022-12-07T04:45:46;150355.69;;;0.01;100.00
51287;BME280;37364;46.974;18.916;2022-12-07T04:48:20;150355.69;;;0.01;100.00
51287;BME280;37364;46.974;18.916;2022-12-07T04:50:50;150349.22;;;-0.02;100.00
51287;BME280;37364;46.974;18.916;2022-12-07T04:53:22;150355.69;;;0.01;100.00
51287;BME280;37364;46.974;18.916;2022-12-07T04:55:52;150364.69;;;0.04;100.00
51287;BME280;37364;46.974;18.916;2022-12-07T04:58:23;150368.50;;;0.06;100.00
51287;BME280;37364;46.974;18.916;2022-12-07T05:00:54;150373.63;;;0.08;100.00
51287;BME280;37364;46.974;18.916;2022-12-07T05:03:28;150383.94;;;0.12;100.00
51287;BME280;37364;46.974;18.916;2022-12-07T05:05:59;150394.22;;;0.16;100.00
51287;BME280;37364;46.974;18.916;2022-12-07T05:08:29;150400.63;;;0.18;100.00
51287;BME280;37364;46.974;18.916;2022-12-07T05:11:00;150405.75;;;0.21;100.00
51287;BME280;37364;46.974;18.916;2022-12-07T05:13:31;150408.31;;;0.22;100.00
51287;BME280;37364;46.974;18.916;2022-12-07T05:16:02;150408.31;;;0.22;100.00
51287;BME280;37364;46.974;18.916;2022-12-07T05:18:36;150416.03;;;0.25;100.00
51287;BME280;37364;46.974;18.916;2022-12-07T05:21:06;150430.16;;;0.30;100.00
51287;BME280;37364;46.974;18.916;2022-12-07T05:23:36;150437.91;;;0.33;100.00
51287;BME280;37364;46.974;18.916;2022-12-07T05:26:07;150444.31;;;0.36;100.00
51287;BME280;37364;46.974;18.916;2022-12-07T05:28:37;150457.13;;;0.41;100.00
51287;BME280;37364;46.974;18.916;2022-12-07T05:31:08;150463.56;;;0.44;100.00
51287;BME280;37364;46.974;18.916;2022-12-07T05:33:41;150466.13;;;0.45;100.00
51287;BME280;37364;46.974;18.916;2022-12-07T05:36:12;150468.72;;;0.46;100.00
51287;BME280;37364;46.974;18.916;2022-12-07T05:38:43;150469.97;;;0.46;100.00
51287;BME280;37364;46.974;18.916;2022-12-07T05:41:15;150479.00;;;0.50;100.00
51287;BME280;37364;46.974;18.916;2022-12-07T05:43:58;150491.84;;;0.55;100.00
51287;BME280;37364;46.974;18.916;2022-12-07T05:46:28;150497.00;;;0.57;100.00
51287;BME280;37364;46.974;18.916;2022-12-07T05:49:02;150497.00;;;0.57;100.00
51287;BME280;37364;46.974;18.916;2022-12-07T05:51:32;150502.13;;;0.59;100.00
51287;BME280;37364;46.974;18.916;2022-12-07T05:54:03;150499.53;;;0.58;100.00
51287;BME280;37364;46.974;18.916;2022-12-07T05:56:34;150485.41;;;0.52;100.00
51287;BME280;37364;46.974;18.916;2022-12-07T05:59:04;150484.13;;;0.52;100.00
51287;BME280;37364;46.974;18.916;2022-12-07T06:01:47;150484.13;;;0.52;100.00
51287;BME280;37364;46.974;18.916;2022-12-07T06:04:21;150479.00;;;0.50;100.00
51287;BME280;37364;46.974;18.916;2022-12-07T06:06:52;150472.59;;;0.47;100.00
51287;BME280;37364;46.974;18.916;2022-12-07T06:09:24;150485.41;;;0.52;100.00
51287;BME280;37364;46.974;18.916;2022-12-07T06:11:55;150490.53;;;0.54;100.00
51287;BME280;37364;46.974;18.916;2022-12-07T06:14:38;150502.13;;;0.59;100.00
51287;BME280;37364;46.974;18.916;2022-12-07T06:17:09;150508.53;;;0.62;100.00
51287;BME280;37364;46.974;18.916;2022-12-07T06:19:42;150495.66;;;0.56;100.00
51287;BME280;37364;46.974;18.916;2022-12-07T06:22:13;150481.53;;;0.51;100.00
51287;BME280;37364;46.974;18.916;2022-12-07T06:24:44;150486.66;;;0.53;100.00
51287;BME280;37364;46.974;18.916;2022-12-07T06:27:14;150476.41;;;0.49;100.00
51287;BME280;37364;46.974;18.916;2022-12-07T06:29:44;150486.66;;;0.53;100.00
51287;BME280;37364;46.974;18.916;2022-12-07T06:32:15;150495.66;;;0.56;100.00
51287;BME280;37364;46.974;18.916;2022-12-07T06:34:48;150516.22;;;0.65;100.00
51287;BME280;37364;46.974;18.916;2022-12-07T06:37:19;150535.50;;;0.72;100.00
51287;BME280;37364;46.974;18.916;2022-12-07T06:39:50;150539.38;;;0.74;100.00
51287;BME280;37364;46.974;18.916;2022-12-07T06:42:21;150554.78;;;0.80;100.00
51287;BME280;37364;46.974;18.916;2022-12-07T06:44:51;150575.38;;;0.88;100.00
51287;BME280;37364;46.974;18.916;2022-12-07T06:47:24;150607.50;;;1.01;100.00
51287;BME280;37364;46.974;18.916;2022-12-07T06:50:12;150611.34;;;1.03;100.00
51287;BME280;37364;46.974;18.916;2022-12-07T06:52:42;150612.63;;;1.03;100.00
51287;BME280;37364;46.974;18.916;2022-12-07T06:55:14;150612.63;;;1.03;100.00
51287;BME280;37364;46.974;18.916;2022-12-07T06:57:45;150616.50;;;1.05;100.00
51287;BME280;37364;46.974;18.916;2022-12-07T07:00:16;150637.06;;;1.13;100.00
51287;BME280;37364;46.974;18.916;2022-12-07T07:02:48;150637.06;;;1.13;100.00
51287;BME280;37364;46.974;18.916;2022-12-07T07:05:22;150638.31;;;1.13;100.00
51287;BME280;37364;46.974;18.916;2022-12-07T07:07:52;150643.47;;;1.15;100.00
51287;BME280;37364;46.974;18.916;2022-12-07T07:10:42;150633.19;;;1.11;100.00
51287;BME280;37364;46.974;18.916;2022-12-07T07:13:13;150633.19;;;1.11;100.00
51287;BME280;37364;46.974;18.916;2022-12-07T07:15:44;150638.31;;;1.13;100.00
51287;BME280;37364;46.974;18.916;2022-12-07T07:18:15;150634.50;;;1.12;100.00
51287;BME280;37364;46.974;18.916;2022-12-07T07:20:50;150647.34;;;1.17;100.00
51287;BME280;37364;46.974;18.916;2022-12-07T07:23:20;150656.34;;;1.21;100.00
51287;BME280;37364;46.974;18.916;2022-12-07T07:25:51;150666.63;;;1.25;100.00
51287;BME280;37364;46.974;18.916;2022-12-07T07:28:22;150679.50;;;1.30;100.00
51287;BME280;37364;46.974;18.916;2022-12-07T07:30:53;150679.50;;;1.30;100.00
51287;BME280;37364;46.974;18.916;2022-12-07T07:33:23;150693.66;;;1.35;100.00
51287;BME280;37364;46.974;18.916;2022-12-07T07:35:57;150710.34;;;1.42;100.00
51287;BME280;37364;46.974;18.916;2022-12-07T07:38:27;150719.34;;;1.46;100.00
51287;BME280;37364;46.974;18.916;2022-12-07T07:40:58;150732.19;;;1.51;100.00
51287;BME280;37364;46.974;18.916;2022-12-07T07:43:29;150743.78;;;1.55;100.00
51287;BME280;37364;46.974;18.916;2022-12-07T07:45:59;150751.47;;;1.58;100.00
51287;BME280;37364;46.974;18.916;2022-12-07T07:48:30;150756.63;;;1.61;100.00
51287;BME280;37364;46.974;18.916;2022-12-07T07:51:05;150761.75;;;1.63;100.00
51287;BME280;37364;46.974;18.916;2022-12-07T07:53:35;150772.09;;;1.67;100.00
51287;BME280;37364;46.974;18.916;2022-12-07T07:56:06;150792.66;;;1.75;100.00
51287;BME280;37364;46.974;18.916;2022-12-07T07:58:36;150801.66;;;1.78;100.00
51287;BME280;37364;46.974;18.916;2022-12-07T08:01:07;150805.50;;;1.80;100.00
51287;BME280;37364;46.974;18.916;2022-12-07T08:03:38;150815.78;;;1.84;100.00
51287;BME280;37364;46.974;18.916;2022-12-07T08:06:13;150820.97;;;1.86;100.00
51287;BME280;37364;46.974;18.916;2022-12-07T08:08:43;150837.66;;;1.93;100.00
51287;BME280;37364;46.974;18.916;2022-12-07T08:11:15;150855.69;;;2.00;100.00
51287;BME280;37364;46.974;18.916;2022-12-07T08:13:46;150832.53;;;1.91;100.00
51287;BME280;37364;46.974;18.916;2022-12-07T08:16:16;150860.84;;;2.02;100.00
51287;BME280;37364;46.974;18.916;2022-12-07T08:18:48;150871.13;;;2.06;100.00
51287;BME280;37364;46.974;18.916;2022-12-07T08:21:22;150881.41;;;2.10;100.00
51287;BME280;37364;46.974;18.916;2022-12-07T08:23:53;150865.97;;;2.04;100.00
51287;BME280;37364;46.974;18.916;2022-12-07T08:26:25;150851.81;;;1.98;100.00
51287;BME280;37364;46.974;18.916;2022-12-07T08:28:55;150865.97;;;2.04;100.00
51287;BME280;37364;46.974;18.916;2022-12-07T08:31:25;150880.13;;;2.10;100.00
51287;BME280;37364;46.974;18.916;2022-12-07T08:33:56;150872.41;;;2.07;100.00
51287;BME280;37364;46.974;18.916;2022-12-07T08:36:30;150885.28;;;2.12;100.00
51287;BME280;37364;46.974;18.916;2022-12-07T08:39:00;150916.16;;;2.24;100.00
51287;BME280;37364;46.974;18.916;2022-12-07T08:41:50;150916.16;;;2.24;100.00
51287;BME280;37364;46.974;18.916;2022-12-07T08:44:21;150926.44;;;2.28;100.00
51287;BME280;37364;46.974;18.916;2022-12-07T08:46:53;150930.31;;;2.30;100.00
51287;BME280;37364;46.974;18.916;2022-12-07T08:49:31;150953.44;;;2.39;100.00
51287;BME280;37364;46.974;18.916;2022-12-07T08:52:05;150956.03;;;2.40;100.00
51287;BME280;37364;46.974;18.916;2022-12-07T08:54:37;150970.19;;;2.46;100.00
51287;BME280;37364;46.974;18.916;2022-12-07T08:57:10;150971.47;;;2.46;100.00
51287;BME280;37364;46.974;18.916;2022-12-07T08:59:41;150981.75;;;2.50;100.00
51287;BME280;37364;46.974;18.916;2022-12-07T09:02:11;150988.22;;;2.53;100.00
51287;BME280;37364;46.974;18.916;2022-12-07T09:04:42;150984.34;;;2.51;100.00
51287;BME280;37364;46.974;18.916;2022-12-07T09:07:16;150997.19;;;2.56;100.00
51287;BME280;37364;46.974;18.916;2022-12-07T09:09:47;150994.63;;;2.55;100.00
51287;BME280;37364;46.974;18.916;2022-12-07T09:12:17;150983.03;;;2.51;100.00
51287;BME280;37364;46.974;18.916;2022-12-07T09:14:47;150997.19;;;2.56;100.00
51287;BME280;37364;46.974;18.916;2022-12-07T09:17:19;150983.03;;;2.51;100.00
51287;BME280;37364;46.974;18.916;2022-12-07T09:19:49;150974.06;;;2.47;100.00
51287;BME280;37364;46.974;18.916;2022-12-07T09:22:22;151020.38;;;2.66;100.00
51287;BME280;37364;46.974;18.916;2022-12-07T09:24:53;151020.38;;;2.66;100.00
51287;BME280;37364;46.974;18.916;2022-12-07T09:27:25;151075.69;;;2.88;100.00
51287;BME280;37364;46.974;18.916;2022-12-07T09:29:55;151088.59;;;2.93;100.00
51287;BME280;37364;46.974;18.916;2022-12-07T09:32:27;151084.72;;;2.91;100.00
51287;BME280;37364;46.974;18.916;2022-12-07T09:34:58;151091.16;;;2.94;100.00
51287;BME280;37364;46.974;18.916;2022-12-07T09:37:30;151124.63;;;3.07;100.00
51287;BME280;37364;46.974;18.916;2022-12-07T09:40:04;151162.00;;;3.22;100.00
51287;BME280;37364;46.974;18.916;2022-12-07T09:42:37;151178.72;;;3.29;100.00
51287;BME280;37364;46.974;18.916;2022-12-07T09:45:13;151196.75;;;3.36;100.00
51287;BME280;37364;46.974;18.916;2022-12-07T09:47:45;151209.66;;;3.41;100.00
51287;BME280;37364;46.974;18.916;2022-12-07T09:50:20;151232.78;;;3.50;100.00
51287;BME280;37364;46.974;18.916;2022-12-07T09:53:03;151245.69;;;3.55;100.00
51287;BME280;37364;46.974;18.916;2022-12-07T09:55:36;151280.47;;;3.69;100.00
51287;BME280;37364;46.974;18.916;2022-12-07T09:58:12;151288.22;;;3.72;100.00
51287;BME280;37364;46.974;18.916;2022-12-07T10:00:47;151312.66;;;3.82;100.00
51287;BME280;37364;46.974;18.916;2022-12-07T10:03:18;151323.00;;;3.86;100.00
51287;BME280;37364;46.974;18.916;2022-12-07T10:05:51;151339.72;;;3.93;100.00
51287;BME280;37364;46.974;18.916;2022-12-07T10:08:25;151371.94;;;4.06;100.00
51287;BME280;37364;46.974;18.916;2022-12-07T10:10:56;151386.09;;;4.11;100.00
51287;BME280;37364;46.974;18.916;2022-12-07T10:13:34;151384.81;;;4.11;100.00
51287;BME280;37364;46.974;18.916;2022-12-07T10:16:06;151384.81;;;4.11;100.00
51287;BME280;37364;46.974;18.916;2022-12-07T10:18:41;151424.75;;;4.27;100.00
51287;BME280;37364;46.974;18.916;2022-12-07T10:21:14;151444.09;;;4.34;100.00
51287;BME280;37364;46.974;18.916;2022-12-07T10:24:03;151451.84;;;4.38;100.00
51287;BME280;37364;46.974;18.916;2022-12-07T10:26:35;151462.16;;;4.42;100.00
51287;BME280;37364;46.974;18.916;2022-12-07T10:29:16;151475.00;;;4.47;100.00
51287;BME280;37364;46.974;18.916;2022-12-07T10:31:52;151489.19;;;4.52;100.00
51287;BME280;37364;46.974;18.916;2022-12-07T10:34:26;151503.38;;;4.58;100.00
51287;BME280;37364;46.974;18.916;2022-12-07T10:37:16;151544.66;;;4.74;100.00
51287;BME280;37364;46.974;18.916;2022-12-07T10:39:52;151534.28;;;4.70;100.00
51287;BME280;37364;46.974;18.916;2022-12-07T10:42:24;151556.25;;;4.79;100.00
51287;BME280;37364;46.974;18.916;2022-12-07T10:45:08;151565.28;;;4.83;100.00
51287;BME280;37364;46.974;18.916;2022-12-07T10:47:44;151556.25;;;4.79;100.00
51287;BME280;37364;46.974;18.916;2022-12-07T10:53:49;151631.00;;;5.09;100.00
51287;BME280;37364;46.974;18.916;2022-12-07T10:59:52;151629.72;;;5.08;100.00
51287;BME280;37364;46.974;18.916;2022-12-07T11:02:54;151628.47;;;5.08;100.00
51287;BME280;37364;46.974;18.916;2022-12-07T11:05:38;151645.19;;;5.14;100.00
51287;BME280;37364;46.974;18.916;2022-12-07T11:08:17;151619.44;;;5.04;100.00
51287;BME280;37364;46.974;18.916;2022-12-07T11:10:55;151645.19;;;5.14;100.00
51287;BME280;37364;46.974;18.916;2022-12-07T11:13:37;151627.13;;;5.07;100.00
51287;BME280;37364;46.974;18.916;2022-12-07T11:16:19;151628.47;;;5.08;100.00
51287;BME280;37364;46.974;18.916;2022-12-07T11:18:59;151625.84;;;5.07;100.00
51287;BME280;37364;46.974;18.916;2022-12-07T11:21:42;151665.81;;;5.23;100.00
51287;BME280;37364;46.974;18.916;2022-12-07T11:24:17;151670.97;;;5.25;100.00
51287;BME280;37364;46.974;18.916;2022-12-07T11:27:01;151658.13;;;5.20;100.00
51287;BME280;37364;46.974;18.916;2022-12-07T11:29:49;151637.44;;;5.11;100.00
51287;BME280;37364;46.974;18.916;2022-12-07T11:32:39;151625.84;;;5.07;100.00
51287;BME280;37364;46.974;18.916;2022-12-07T11:35:24;151632.28;;;5.09;100.00
51287;BME280;37364;46.974;18.916;2022-12-07T11:38:09;151642.59;;;5.13;100.00
51287;BME280;37364;46.974;18.916;2022-12-07T11:40:42;151665.81;;;5.23;100.00
51287;BME280;37364;46.974;18.916;2022-12-07T11:43:20;151674.84;;;5.26;100.00
51287;BME280;37364;46.974;18.916;2022-12-07T11:46:02;151676.13;;;5.27;100.00
51287;BME280;37364;46.974;18.916;2022-12-07T11:48:37;151667.09;;;5.23;100.00
51287;BME280;37364;46.974;18.916;2022-12-07T11:51:10;151656.78;;;5.19;100.00
51287;BME280;37364;46.974;18.916;2022-12-07T11:53:46;151669.72;;;5.24;100.00
51287;BME280;37364;46.974;18.916;2022-12-07T11:56:20;151664.53;;;5.22;100.00
51287;BME280;37364;46.974;18.916;2022-12-07T11:58:55;151683.91;;;5.30;100.00
51287;BME280;37364;46.974;18.916;2022-12-07T12:01:43;151709.69;;;5.40;100.00
51287;BME280;37364;46.974;18.916;2022-12-07T12:04:26;151720.00;;;5.44;100.00
51287;BME280;37364;46.974;18.916;2022-12-07T12:06:58;151714.84;;;5.42;100.00
51287;BME280;37364;46.974;18.916;2022-12-07T12:09:52;151721.28;;;5.45;100.00
51287;BME280;37364;46.974;18.916;2022-12-07T12:12:47;151749.66;;;5.56;100.00
51287;BME280;37364;46.974;18.916;2022-12-07T12:15:51;151726.44;;;5.47;100.00
51287;BME280;37364;46.974;18.916;2022-12-07T12:18:37;151759.97;;;5.60;100.00
51287;BME280;37364;46.974;18.916;2022-12-07T12:21:13;151700.66;;;5.37;100.00
51287;BME280;37364;46.974;18.916;2022-12-07T12:23:49;151682.63;;;5.29;100.00
51287;BME280;37364;46.974;18.916;2022-12-07T12:26:26;151699.38;;;5.36;100.00
51287;BME280;37364;46.974;18.916;2022-12-07T12:28:58;151729.03;;;5.48;100.00
51287;BME280;37364;46.974;18.916;2022-12-07T12:31:37;151705.81;;;5.39;100.00
51287;BME280;37364;46.974;18.916;2022-12-07T12:34:37;151681.28;;;5.29;100.00
51287;BME280;37364;46.974;18.916;2022-12-07T12:37:41;151690.34;;;5.32;100.00
51287;BME280;37364;46.974;18.916;2022-12-07T12:40:43;151669.72;;;5.24;100.00
51287;BME280;37364;46.974;18.916;2022-12-07T12:43:42;151667.09;;;5.23;100.00
51287;BME280;37364;46.974;18.916;2022-12-07T12:49:56;151661.94;;;5.21;100.00
51287;BME280;37364;46.974;18.916;2022-12-07T12:56:05;151668.44;;;5.24;100.00
51287;BME280;37364;46.974;18.916;2022-12-07T12:58:42;151682.63;;;5.29;100.00
51287;BME280;37364;46.974;18.916;2022-12-07T13:04:35;151696.75;;;5.35;100.00
51287;BME280;37364;46.974;18.916;2022-12-07T13:13:33;151750.94;;;5.57;100.00
51287;BME280;37364;46.974;18.916;2022-12-07T13:25:59;151758.69;;;5.60;100.00
51287;BME280;37364;46.974;18.916;2022-12-07T13:28:35;151759.97;;;5.60;100.00
51287;BME280;37364;46.974;18.916;2022-12-07T13:31:30;151771.63;;;5.65;100.00
51287;BME280;37364;46.974;18.916;2022-12-07T13:34:04;151789.66;;;5.72;100.00
51287;BME280;37364;46.974;18.916;2022-12-07T13:36:38;151790.97;;;5.72;100.00
51287;BME280;37364;46.974;18.916;2022-12-07T13:39:18;151790.97;;;5.72;100.00
51287;BME280;37364;46.974;18.916;2022-12-07T13:41:54;151767.75;;;5.63;100.00
51287;BME280;37364;46.974;18.916;2022-12-07T13:44:25;151753.53;;;5.58;100.00
51287;BME280;37364;46.974;18.916;2022-12-07T13:47:01;151756.16;;;5.59;100.00
51287;BME280;37364;46.974;18.916;2022-12-07T13:49:37;151771.63;;;5.65;100.00